Latest Weather Observations for Mount Boyce

IDN60901

Issued at 12:01 pm EST Sunday 29 May 2016 (issued every 10 minutes, with the page automatically refreshed every 10 minutes)

About weather observations | Map of Sydney area stations | Latest observations for Sydney area | Other Formats
Station Details ID: 063292 Name: MOUNT BOYCE AWS Lat: -33.62 Lon: 150.27 Height: 1080.0 m
Data from the previous 72 hours. | See also: Recent months at Mount Boyce
Date/Time
EST
Tmp

°C
App
Tmp
°C
Dew
Point
°C
Rel
Hum
%
Delta-T

°C
Wind Press
QNH
hPa
Press
MSL
hPa
Rain
since
9 am
mm
Dir
 
Spd
km/h
Gust
km/h
Spd
kts
Gust
kts
29/11:30am 7.5 2.0 0.5 61 3.0 W 19 30 10 16 - - 0.0
29/11:00am 6.4 0.3 0.3 65 2.6 WSW 22 30 12 16 - - 0.0
29/10:30am 5.5 -1.4 0.1 68 2.2 W 26 35 14 19 - - 0.0
29/10:00am 4.6 -2.7 0.0 72 1.9 W 28 37 15 20 - - 0.0
29/09:30am 3.9 -2.2 0.1 76 1.5 W 22 32 12 17 - - 0.0
29/09:00am 3.0 -3.5 0.1 81 1.2 W 24 33 13 18 - - 0.2
29/08:30am 2.3 -3.5 0.0 85 0.9 W 20 30 11 16 - - 0.2
29/08:00am 1.8 -4.8 -0.1 87 0.7 W 24 33 13 18 - - 0.2
29/07:30am 1.4 -4.5 -0.5 87 0.7 WSW 20 30 11 16 - - 0.2
29/07:00am 1.7 -4.2 -0.5 85 0.9 W 20 30 11 16 - - 0.2
29/06:30am 2.0 -4.2 -0.2 85 0.9 WSW 22 30 12 16 - - 0.2
29/06:00am 2.1 -4.9 -0.5 83 1.0 WSW 26 35 14 19 - - 0.2
29/05:30am 2.4 -5.0 -0.5 81 1.1 WSW 28 41 15 22 - - 0.2
29/05:08am 2.6 -5.1 -0.2 82 1.1 WSW 30 50 16 27 - - 0.2
29/05:00am 2.4 -5.3 -0.4 82 1.1 WSW 30 43 16 23 - - 0.2
29/04:30am 2.6 -4.7 -0.3 81 1.1 WSW 28 46 15 25 - - 0.2
29/04:28am 2.7 -4.6 -0.2 81 1.2 WSW 28 46 15 25 - - 0.2
29/04:00am 2.7 -4.6 -0.2 81 1.2 WSW 28 41 15 22 - - 0.2
29/03:30am 2.9 -2.9 0.0 81 1.2 WSW 20 30 11 16 - - 0.2
29/03:00am 3.1 -4.2 0.0 80 1.2 WSW 28 44 15 24 - - 0.2
29/02:30am 3.2 -3.7 0.3 81 1.2 WSW 26 39 14 21 - - 0.2
29/02:00am 3.3 -4.0 0.0 79 1.3 WSW 28 39 15 21 - - 0.2
29/01:30am 3.3 -4.0 0.0 79 1.3 WSW 28 43 15 23 - - 0.2
29/01:13am 3.4 -4.3 -0.2 77 1.4 WSW 30 48 16 26 - - 0.2
29/01:00am 3.4 -4.7 -0.4 76 1.5 WSW 32 46 17 25 - - 0.2
29/12:30am 3.5 -3.8 -0.1 77 1.4 WSW 28 46 15 25 - - 0.2
29/12:06am 3.7 -4.4 -0.1 76 1.5 WSW 32 52 17 28 - - 0.2
29/12:00am 3.4 -4.3 -0.2 77 1.4 WSW 30 41 16 22 - - 0.2
 
Date/Time
EST
Tmp

°C
App
Tmp
°C
Dew
Point
°C
Rel
Hum
%
Delta-T

°C
Wind Press
QNH
hPa
Press
MSL
hPa
Rain
since
9 am
mm
Dir
 
Spd
km/h
Gust
km/h
Spd
kts
Gust
kts
28/11:30pm 3.5 -3.8 0.0 78 1.4 WSW 28 43 15 23 - - 0.2
28/11:22pm 3.6 -4.5 0.0 77 1.5 WSW 32 50 17 27 - - 0.2
28/11:02pm 3.7 -3.9 0.6 80 1.3 WSW 30 46 16 25 - - 0.2
28/11:00pm 3.7 -4.2 0.8 81 1.2 WSW 32 52 17 28 - - 0.2
28/10:47pm 3.8 -4.0 1.7 86 0.9 WSW 32 50 17 27 - - 0.2
28/10:30pm 3.9 -2.3 2.4 90 0.6 WSW 24 39 13 21 - - 0.2
28/10:00pm 3.9 -3.5 1.8 86 0.9 W 30 43 16 23 - - 0.2
28/09:33pm 4.0 -2.3 1.7 85 1.0 W 24 35 13 19 - - 0.2
28/09:30pm 4.0 -2.3 1.7 85 1.0 W 24 37 13 20 - - 0.2
28/09:22pm 3.9 -2.0 1.8 86 0.9 W 22 37 12 20 - - 0.2
28/09:00pm 4.1 -2.5 1.8 85 1.0 WSW 26 37 14 20 - - 0.2
28/08:49pm 4.1 -2.2 1.8 85 1.0 WSW 24 32 13 17 - - 0.2
28/08:39pm 4.2 -2.1 1.7 84 1.1 WSW 24 37 13 20 - - 0.2
28/08:30pm 4.2 -2.8 1.9 85 1.0 WSW 28 37 15 20 - - 0.2
28/08:03pm 4.4 -3.0 2.1 85 1.0 WSW 30 54 16 29 - - 0.2
28/08:00pm 4.4 -2.6 2.1 85 1.0 WSW 28 43 15 23 - - 0.2
28/07:30pm 4.3 -1.9 2.2 86 0.9 WSW 24 39 13 21 - - 0.2
28/07:00pm 4.2 -2.3 2.4 88 0.8 W 26 39 14 21 - - 0.2
28/06:30pm 4.4 -2.2 1.9 84 1.1 WSW 26 43 14 23 - - 0.2
28/06:03pm 4.5 -2.8 2.2 85 1.0 WSW 30 48 16 26 - - 0.2
28/06:00pm 4.4 -2.6 2.1 85 1.0 WSW 28 41 15 22 - - 0.2
28/05:37pm 4.5 -2.5 1.9 83 1.1 W 28 44 15 24 - - 0.2
28/05:30pm 4.6 -2.4 2.0 83 1.1 W 28 44 15 24 - - 0.2
28/05:00pm 5.0 -2.0 1.8 80 1.4 WSW 28 39 15 21 - - 0.2
28/04:31pm 5.1 -2.4 1.4 77 1.6 WSW 30 52 16 28 - - 0.2
28/04:30pm 5.1 -2.3 1.6 78 1.5 WSW 30 44 16 24 - - 0.2
28/04:00pm 5.1 -2.7 1.6 78 1.5 WSW 32 46 17 25 - - 0.2
28/03:43pm 5.2 -2.7 1.3 76 1.7 WSW 32 56 17 30 - - 0.2
28/03:30pm 5.6 -1.1 1.5 75 1.8 WSW 26 43 14 23 - - 0.2
28/03:00pm 5.1 -2.8 1.0 75 1.7 WSW 32 50 17 27 - - 0.2
28/02:42pm 5.4 -1.9 2.2 80 1.4 W 30 48 16 26 - - 0.2
28/02:31pm 5.2 -1.8 1.9 79 1.4 W 28 43 15 23 - - 0.2
28/02:30pm 5.2 -1.8 1.9 79 1.4 W 28 43 15 23 - - 0.2
28/02:04pm 5.4 -2.3 2.4 81 1.3 W 32 54 17 29 - - 0.2
28/02:00pm 5.4 -2.3 2.4 81 1.3 W 32 46 17 25 - - 0.2
28/01:30pm 4.8 -2.1 2.8 87 0.9 W 28 44 15 24 - - 0.2
28/01:05pm 4.2 -3.0 2.9 91 0.6 W 30 48 16 26 - - 0.2
28/01:00pm 4.1 -2.4 2.9 92 0.5 W 26 37 14 20 - - 0.2
28/12:30pm 4.1 -2.7 2.9 92 0.5 W 28 48 15 26 - - 0.2
28/12:16pm 4.7 -2.1 3.0 89 0.7 WSW 28 46 15 25 - - 0.2
28/12:00pm 4.6 -1.1 2.9 89 0.7 W 22 32 12 17 - - 0.2
28/11:30am 4.4 -2.5 2.4 87 0.9 WSW 28 50 15 27 - - 0.2
28/11:05am 3.9 -3.1 2.1 88 0.8 W 28 46 15 25 - - 0.2
28/11:00am 3.9 -2.7 2.1 88 0.8 W 26 44 14 24 - - 0.2
28/10:58am 3.9 -3.1 2.1 88 0.8 W 28 48 15 26 - - 0.2
28/10:30am 3.7 -2.9 1.9 88 0.8 WSW 26 44 14 24 - - 0.0
28/10:20am 3.7 -3.3 2.1 89 0.7 W 28 46 15 25 - - 0.0
28/10:00am 3.7 -2.8 2.5 92 0.5 W 26 39 14 21 - - 0.0
28/09:30am 3.7 -2.4 2.8 94 0.4 W 24 33 13 18 - - 0.0
28/09:17am 3.7 -2.0 3.1 96 0.3 W 22 39 12 21 - - 0.0
28/09:00am 3.9 -2.1 3.5 97 0.2 W 24 41 13 22 - - 0.2
28/08:58am 3.9 -2.1 3.3 96 0.3 W 24 41 13 22 - - 0.2
28/08:30am 4.1 -1.5 3.4 95 0.3 W 22 33 12 18 - - 0.0
28/08:00am 4.9 -0.2 3.2 89 0.8 W 19 26 10 14 - - 0.0
28/07:39am 5.1 -0.2 3.1 87 0.9 W 20 30 11 16 - - 0.0
28/07:30am 5.1 -0.6 3.1 87 0.9 W 22 39 12 21 - - 0.0
28/07:03am 4.5 -0.1 3.5 93 0.4 W 17 24 9 13 - - 0.0
28/07:00am 4.4 0.1 3.4 93 0.4 W 15 20 8 11 - - 0.0
28/06:30am 4.2 -0.1 3.2 93 0.4 WSW 15 22 8 12 - - 0.0
28/06:00am 4.3 -0.4 3.3 93 0.4 WSW 17 24 9 13 - - 0.0
28/05:30am 4.1 -0.6 2.9 92 0.5 WSW 17 28 9 15 - - 0.0
28/05:00am 4.8 0.1 3.3 90 0.7 WSW 17 24 9 13 - - 0.0
28/04:30am 4.5 0.2 3.2 91 0.6 WSW 15 22 8 12 - - 0.0
28/04:00am 4.4 -0.3 3.2 92 0.5 WSW 17 22 9 12 - - 0.0
28/03:30am 4.3 0.0 3.1 92 0.5 WSW 15 24 8 13 - - 0.0
28/03:00am 4.4 -0.9 3.2 92 0.5 WSW 20 30 11 16 - - 0.0
28/02:41am 4.5 -2.3 3.2 91 0.6 WSW 28 46 15 25 - - 0.0
28/02:30am 4.5 -1.5 3.2 91 0.6 WSW 24 39 13 21 - - 0.0
28/02:00am 4.6 -2.6 2.9 89 0.7 W 30 50 16 27 - - 0.0
28/01:55am 4.6 -3.0 2.9 89 0.7 W 32 50 17 27 - - 0.0
28/01:30am 4.6 -2.6 2.8 88 0.8 W 30 43 16 23 - - 0.0
28/01:17am 4.6 -2.3 2.8 88 0.8 W 28 52 15 28 - - 0.0
28/01:00am 4.6 -2.3 2.6 87 0.9 W 28 44 15 24 - - 0.0
28/12:45am 4.5 -2.4 2.5 87 0.9 WSW 28 46 15 25 - - 0.0
28/12:30am 4.5 -3.2 2.5 87 0.9 W 32 46 17 25 - - 0.0
28/12:03am 4.5 -2.5 2.2 85 1.0 W 28 48 15 26 - - 0.0
28/12:00am 4.5 -2.8 2.2 85 1.0 W 30 44 16 24 - - 0.0
 
Date/Time
EST
Tmp

°C
App
Tmp
°C
Dew
Point
°C
Rel
Hum
%
Delta-T

°C
Wind Press
QNH
hPa
Press
MSL
hPa
Rain
since
9 am
mm
Dir
 
Spd
km/h
Gust
km/h
Spd
kts
Gust
kts
27/11:31pm 4.6 -2.4 2.0 83 1.1 W 28 44 15 24 - - 0.0
27/11:30pm 4.5 -2.5 1.9 83 1.1 W 28 44 15 24 - - 0.0
27/11:00pm 4.5 -2.6 1.4 80 1.3 W 28 43 15 23 - - 0.0
27/10:30pm 4.4 -3.1 1.4 81 1.3 WSW 30 48 16 26 - - 0.0
27/10:28pm 4.3 -3.2 1.3 81 1.3 WSW 30 48 16 26 - - 0.0
27/10:00pm 4.2 -3.9 1.2 81 1.3 WSW 33 48 18 26 - - 0.0
27/09:32pm 4.2 -4.7 0.9 79 1.4 WSW 37 59 20 32 - - 0.0
27/09:30pm 4.2 -4.7 0.9 79 1.4 WSW 37 52 20 28 - - 0.0
27/09:00pm 4.3 -6.0 0.5 76 1.6 WSW 44 69 24 37 - - 0.0
27/08:30pm 4.3 -4.3 0.5 76 1.6 WSW 35 63 19 34 - - 0.0
27/08:00pm 4.3 -5.0 0.3 75 1.6 WSW 39 63 21 34 - - 0.0
27/07:30pm 4.5 -5.3 0.1 73 1.8 WSW 41 65 22 35 - - 0.0
27/07:00pm 4.6 -5.7 0.0 72 1.9 WSW 44 76 24 41 - - 0.0
27/06:30pm 4.6 -6.9 -0.4 70 2.0 WSW 50 76 27 41 - - 0.0
27/06:00pm 4.8 -6.8 -1.0 66 2.3 WSW 50 80 27 43 - - 0.0
27/05:30pm 5.0 -6.2 -1.0 65 2.4 WSW 48 76 26 41 - - 0.0
27/05:00pm 5.2 -5.3 -1.0 64 2.5 WSW 44 69 24 37 - - 0.0
27/04:30pm 5.5 -3.6 -0.5 65 2.4 WSW 37 56 20 30 - - 0.0
27/04:00pm 5.6 -4.6 -0.4 65 2.4 WSW 43 74 23 40 - - 0.0
27/03:30pm 5.9 -3.6 -0.6 63 2.6 WSW 39 67 21 36 - - 0.0
27/03:00pm 6.3 -3.6 -0.9 60 2.9 WSW 41 67 22 36 - - 0.0
27/02:30pm 6.9 -2.5 -0.3 60 3.0 WSW 39 63 21 34 - - 0.0
27/02:00pm 6.3 -4.5 -0.4 62 2.8 WSW 46 72 25 39 - - 0.0
27/01:30pm 6.1 -5.1 -0.6 62 2.7 WSW 48 76 26 41 - - 0.0
27/01:00pm 5.9 -4.9 -0.6 63 2.6 WSW 46 74 25 40 - - 0.0
27/12:30pm 5.8 -5.3 -0.3 65 2.5 WSW 48 67 26 36 - - 0.0
27/12:00pm 6.0 -4.4 -0.1 65 2.5 WSW 44 69 24 37 - - 0.0
27/11:30am 5.5 -4.9 -0.3 66 2.4 W 44 76 24 41 - - 0.0
27/11:00am 5.3 -5.5 -0.3 67 2.3 WSW 46 72 25 39 - - 0.0
27/10:30am 5.0 -6.6 -0.8 66 2.3 WSW 50 74 27 40 - - 0.0
27/10:00am 4.8 -6.0 -0.4 69 2.1 WSW 46 72 25 39 - - 0.0
27/09:30am 4.1 -7.1 -0.7 71 1.9 WSW 48 69 26 37 - - 0.0
27/09:00am 3.7 -6.7 -0.7 73 1.7 WSW 44 65 24 35 - - 0.2
27/08:31am 3.5 -6.4 -0.7 74 1.7 WSW 41 61 22 33 - - 0.2
27/08:30am 3.5 -6.4 -0.7 74 1.7 WSW 41 57 22 31 - - 0.2
27/08:07am 3.3 -5.8 -0.7 75 1.6 WSW 37 56 20 30 - - 0.2
27/08:00am 3.3 -6.6 -0.7 75 1.6 WSW 41 56 22 30 - - 0.2
27/07:30am 3.3 -7.1 -0.7 75 1.6 WSW 44 70 24 38 - - 0.2
27/07:00am 3.5 -6.7 -0.5 75 1.6 WSW 43 61 23 33 - - 0.2
27/06:30am 3.7 -6.4 0.1 77 1.5 WSW 43 67 23 36 - - 0.2
27/06:00am 4.2 -5.5 0.4 76 1.6 WSW 41 72 22 39 - - 0.2
27/05:58am 4.3 -5.0 0.5 76 1.6 WSW 39 72 21 39 - - 0.2
27/05:30am 4.2 -4.3 0.9 79 1.4 WSW 35 54 19 29 - - 0.2
27/05:00am 4.5 -4.0 0.8 77 1.5 W 35 56 19 30 - - 0.2
27/04:30am 4.7 -3.7 1.7 81 1.3 WSW 35 54 19 29 - - 0.2
27/04:25am 4.8 -3.6 1.7 80 1.3 WSW 35 54 19 29 - - 0.2
27/04:18am 4.8 -3.0 1.8 81 1.3 W 32 50 17 27 - - 0.2
27/04:13am 4.8 -3.0 2.0 82 1.2 WSW 32 48 17 26 - - 0.2
27/04:10am 4.9 -2.9 1.9 81 1.3 W 32 52 17 28 - - 0.2
27/04:00am 5.0 -2.8 2.0 81 1.3 W 32 57 17 31 - - 0.2
27/03:30am 5.0 -2.0 2.0 81 1.3 W 28 54 15 29 - - 0.2
27/03:25am 5.1 -1.8 2.3 82 1.2 W 28 54 15 29 - - 0.2
27/03:00am 5.1 -1.5 2.1 81 1.3 W 26 41 14 22 - - 0.2
27/02:30am 5.0 -1.5 2.4 83 1.1 W 26 43 14 23 - - 0.2
27/02:06am 5.0 -2.0 2.0 81 1.3 W 28 46 15 25 - - 0.2
27/02:05am 5.0 -1.6 2.0 81 1.3 W 26 46 14 25 - - 0.2
27/02:00am 5.0 -0.9 1.7 79 1.4 W 22 33 12 18 - - 0.2
27/01:30am 5.2 -1.9 1.3 76 1.7 W 28 46 15 25 - - 0.2
27/01:00am 5.4 -2.0 1.7 77 1.6 W 30 50 16 27 - - 0.2
27/12:33am 5.8 -1.1 2.4 79 1.5 W 28 46 15 25 - - 0.2
27/12:30am 5.9 -1.0 2.5 79 1.5 W 28 41 15 22 - - 0.2
27/12:14am 6.2 -0.5 3.4 82 1.3 W 28 46 15 25 - - 0.2
27/12:00am 6.3 -0.4 3.5 82 1.3 WSW 28 41 15 22 - - 0.2
 
Date/Time
EST
Tmp

°C
App
Tmp
°C
Dew
Point
°C
Rel
Hum
%
Delta-T

°C
Wind Press
QNH
hPa
Press
MSL
hPa
Rain
since
9 am
mm
Dir
 
Spd
km/h
Gust
km/h
Spd
kts
Gust
kts
26/11:30pm 6.6 -0.1 3.8 82 1.3 W 28 52 15 28 - - 0.2
26/11:19pm 6.7 0.0 3.9 82 1.3 WSW 28 46 15 25 - - 0.2
26/11:00pm 6.8 -0.6 3.9 82 1.3 W 32 46 17 25 - - 0.2
26/10:30pm 7.1 -0.8 4.4 83 1.3 W 35 56 19 30 - - 0.2
26/10:11pm 7.1 -0.2 4.6 84 1.2 W 32 52 17 28 - - 0.2
26/10:00pm 7.1 0.2 4.8 85 1.1 W 30 52 16 28 - - 0.2
26/09:30pm 7.3 -0.4 5.3 87 0.9 W 35 56 19 30 - - 0.2
26/09:00pm 7.2 0.1 5.3 88 0.9 W 32 50 17 27 - - 0.2
26/08:44pm 7.3 0.7 5.9 91 0.7 W 30 48 16 26 - - 0.2
26/08:30pm 7.4 0.8 5.9 90 0.7 WSW 30 44 16 24 - - 0.2
26/08:05pm 7.5 1.3 6.1 91 0.7 W 28 46 15 25 - - 0.2
26/08:00pm 7.5 0.5 6.0 90 0.7 W 32 46 17 25 - - 0.2
26/07:30pm 7.5 0.9 6.0 90 0.7 WSW 30 52 16 28 - - 0.2
26/07:00pm 7.6 0.3 5.6 87 1.0 W 33 56 18 30 - - 0.2
26/06:30pm 7.7 1.2 6.3 91 0.7 W 30 56 16 30 - - 0.2
26/06:22pm 7.7 1.6 6.5 92 0.6 W 28 46 15 25 - - 0.2
26/06:00pm 7.7 0.8 6.5 92 0.6 W 32 46 17 25 - - 0.2
26/05:30pm 7.7 1.6 6.5 92 0.6 W 28 46 15 25 - - 0.2
26/05:00pm 7.5 1.0 6.6 94 0.4 W 30 57 16 31 - - 0.2
26/04:30pm 7.6 0.6 6.7 94 0.4 W 33 59 18 32 - - 0.2
26/04:00pm 7.9 1.5 6.8 93 0.5 W 30 50 16 27 - - 0.2
26/03:33pm 8.0 1.9 6.8 92 0.6 W 28 46 15 25 - - 0.2
26/03:30pm 8.0 1.5 6.6 91 0.7 W 30 46 16 25 - - 0.2
26/03:00pm 8.2 1.4 7.0 92 0.6 W 32 59 17 32 - - 0.2
26/02:30pm 8.1 1.4 7.2 94 0.4 W 32 50 17 27 - - 0.2
26/02:00pm 7.8 1.1 7.5 98 0.2 W 32 52 17 28 - - 0.2
26/01:50pm 7.5 1.5 7.2 98 0.1 W 28 48 15 26 - - 0.2
26/01:31pm 7.3 0.9 7.0 98 0.1 W 30 48 16 26 - - 0.2
26/01:30pm 7.2 0.4 6.9 98 0.1 W 32 48 17 26 - - 0.2
26/01:00pm 7.0 0.9 6.7 98 0.1 W 28 41 15 22 - - 0.2
26/12:32pm 6.7 -0.2 6.3 97 0.2 W 32 50 17 27 - - 0.2
26/12:30pm 6.8 -0.1 6.4 97 0.2 W 32 48 17 26 - - 0.2

Latest Capital City Observations: Canberra | Sydney | Melbourne | Brisbane | Adelaide | Perth | Hobart | Darwin

Other Formats:

Comma delimited format used in spreadsheet applications
http://www.bom.gov.au/fwo/IDN60901/IDN60901.94743.axf

JavaScript Object Notation format (JSON) in row-major order
http://www.bom.gov.au/fwo/IDN60901/IDN60901.94743.json